sensor_id;sensor_type;location;lat;lon;timestamp;P1;durP1;ratioP1;P2;durP2;ratioP2
40757;SDS011;26462;47.384;19.218;2024-02-21T14:18:22;5.90;;;1.08;;
40757;SDS011;26462;47.384;19.218;2024-02-21T14:20:51;5.72;;;1.30;;
40757;SDS011;26462;47.384;19.218;2024-02-21T14:23:19;4.78;;;1.10;;
40757;SDS011;26462;47.384;19.218;2024-02-21T14:25:48;7.25;;;1.45;;
40757;SDS011;26462;47.384;19.218;2024-02-21T14:28:17;4.63;;;1.83;;
40757;SDS011;26462;47.384;19.218;2024-02-21T14:30:47;9.45;;;4.22;;
40757;SDS011;26462;47.384;19.218;2024-02-21T14:33:21;6.95;;;2.55;;
40757;SDS011;26462;47.384;19.218;2024-02-21T14:35:50;7.25;;;1.25;;
40757;SDS011;26462;47.384;19.218;2024-02-21T14:38:19;7.88;;;1.65;;
40757;SDS011;26462;47.384;19.218;2024-02-21T14:40:49;4.45;;;1.73;;
40757;SDS011;26462;47.384;19.218;2024-02-21T14:43:17;6.90;;;2.78;;
40757;SDS011;26462;47.384;19.218;2024-02-21T14:45:48;11.50;;;4.22;;
40757;SDS011;26462;47.384;19.218;2024-02-21T14:48:17;5.65;;;2.05;;
40757;SDS011;26462;47.384;19.218;2024-02-21T14:50:48;10.00;;;2.38;;
40757;SDS011;26462;47.384;19.218;2024-02-21T14:53:17;10.10;;;4.32;;
40757;SDS011;26462;47.384;19.218;2024-02-21T14:55:45;7.75;;;3.53;;
40757;SDS011;26462;47.384;19.218;2024-02-21T14:58:17;8.10;;;2.67;;
40757;SDS011;26462;47.384;19.218;2024-02-21T15:00:48;6.65;;;2.10;;
40757;SDS011;26462;47.384;19.218;2024-02-21T15:03:17;6.35;;;1.70;;
40757;SDS011;26462;47.384;19.218;2024-02-21T15:05:48;9.85;;;1.40;;
40757;SDS011;26462;47.384;19.218;2024-02-21T15:08:17;6.85;;;1.90;;
40757;SDS011;26462;47.384;19.218;2024-02-21T15:10:46;9.77;;;2.10;;
40757;SDS011;26462;47.384;19.218;2024-02-21T15:13:17;28.38;;;8.32;;
40757;SDS011;26462;47.384;19.218;2024-02-21T15:15:46;8.38;;;2.60;;
40757;SDS011;26462;47.384;19.218;2024-02-21T15:18:15;11.48;;;4.38;;
40757;SDS011;26462;47.384;19.218;2024-02-21T15:20:44;15.05;;;6.10;;
40757;SDS011;26462;47.384;19.218;2024-02-21T15:23:14;7.22;;;1.88;;
40757;SDS011;26462;47.384;19.218;2024-02-21T15:25:44;21.35;;;5.78;;
40757;SDS011;26462;47.384;19.218;2024-02-21T15:28:13;19.60;;;5.78;;
40757;SDS011;26462;47.384;19.218;2024-02-21T15:30:41;8.93;;;1.58;;
40757;SDS011;26462;47.384;19.218;2024-02-21T15:33:09;6.43;;;1.73;;
40757;SDS011;26462;47.384;19.218;2024-02-21T15:35:38;10.35;;;3.05;;
40757;SDS011;26462;47.384;19.218;2024-02-21T15:38:09;6.45;;;2.72;;
40757;SDS011;26462;47.384;19.218;2024-02-21T15:40:41;8.20;;;2.38;;
40757;SDS011;26462;47.384;19.218;2024-02-21T15:43:11;3.65;;;1.00;;
40757;SDS011;26462;47.384;19.218;2024-02-21T15:45:39;4.47;;;1.00;;
40757;SDS011;26462;47.384;19.218;2024-02-21T15:48:08;7.72;;;1.05;;
40757;SDS011;26462;47.384;19.218;2024-02-21T15:50:37;5.95;;;1.42;;
40757;SDS011;26462;47.384;19.218;2024-02-21T15:53:05;4.60;;;1.52;;
40757;SDS011;26462;47.384;19.218;2024-02-21T15:55:34;11.43;;;2.65;;
40757;SDS011;26462;47.384;19.218;2024-02-21T15:58:06;15.02;;;4.85;;
40757;SDS011;26462;47.384;19.218;2024-02-21T16:00:36;15.63;;;5.05;;
40757;SDS011;26462;47.384;19.218;2024-02-21T16:03:04;15.30;;;4.85;;
40757;SDS011;26462;47.384;19.218;2024-02-21T16:05:33;12.60;;;6.10;;
40757;SDS011;26462;47.384;19.218;2024-02-21T16:08:02;11.05;;;5.40;;
40757;SDS011;26462;47.384;19.218;2024-02-21T16:10:31;26.67;;;12.23;;
40757;SDS011;26462;47.384;19.218;2024-02-21T16:13:00;21.05;;;12.05;;
40757;SDS011;26462;47.384;19.218;2024-02-21T16:15:29;17.30;;;8.45;;
40757;SDS011;26462;47.384;19.218;2024-02-21T16:17:58;13.38;;;5.75;;
40757;SDS011;26462;47.384;19.218;2024-02-21T16:20:27;8.13;;;3.50;;
40757;SDS011;26462;47.384;19.218;2024-02-21T16:22:55;6.45;;;3.22;;
40757;SDS011;26462;47.384;19.218;2024-02-21T16:25:29;9.80;;;3.17;;
40757;SDS011;26462;47.384;19.218;2024-02-21T16:27:58;7.75;;;2.30;;
40757;SDS011;26462;47.384;19.218;2024-02-21T16:30:29;5.32;;;1.88;;
40757;SDS011;26462;47.384;19.218;2024-02-21T16:32:58;6.63;;;2.00;;
40757;SDS011;26462;47.384;19.218;2024-02-21T16:35:26;7.43;;;2.05;;
40757;SDS011;26462;47.384;19.218;2024-02-21T16:37:55;9.40;;;1.95;;
40757;SDS011;26462;47.384;19.218;2024-02-21T16:40:25;4.72;;;2.03;;
40757;SDS011;26462;47.384;19.218;2024-02-21T16:42:53;5.75;;;2.13;;
40757;SDS011;26462;47.384;19.218;2024-02-21T16:45:23;8.82;;;2.97;;
40757;SDS011;26462;47.384;19.218;2024-02-21T16:47:53;8.70;;;3.20;;
40757;SDS011;26462;47.384;19.218;2024-02-21T16:50:22;9.68;;;3.97;;
40757;SDS011;26462;47.384;19.218;2024-02-21T16:52:50;17.48;;;6.25;;
40757;SDS011;26462;47.384;19.218;2024-02-21T16:55:19;7.68;;;3.80;;
40757;SDS011;26462;47.384;19.218;2024-02-21T16:57:48;10.25;;;3.85;;
40757;SDS011;26462;47.384;19.218;2024-02-21T17:00:17;15.20;;;4.20;;
40757;SDS011;26462;47.384;19.218;2024-02-21T17:02:47;14.10;;;4.97;;
40757;SDS011;26462;47.384;19.218;2024-02-21T17:05:26;17.10;;;6.90;;
40757;SDS011;26462;47.384;19.218;2024-02-21T17:07:56;20.20;;;6.25;;
40757;SDS011;26462;47.384;19.218;2024-02-21T17:10:24;16.55;;;5.97;;
40757;SDS011;26462;47.384;19.218;2024-02-21T17:12:53;14.95;;;5.53;;
40757;SDS011;26462;47.384;19.218;2024-02-21T17:15:21;17.08;;;6.00;;
40757;SDS011;26462;47.384;19.218;2024-02-21T17:17:50;17.73;;;5.57;;
40757;SDS011;26462;47.384;19.218;2024-02-21T17:20:18;15.07;;;6.15;;
40757;SDS011;26462;47.384;19.218;2024-02-21T17:22:48;17.60;;;5.95;;
40757;SDS011;26462;47.384;19.218;2024-02-21T17:25:16;22.65;;;5.85;;
40757;SDS011;26462;47.384;19.218;2024-02-21T17:27:45;16.23;;;6.60;;
40757;SDS011;26462;47.384;19.218;2024-02-21T17:30:13;21.30;;;7.85;;
40757;SDS011;26462;47.384;19.218;2024-02-21T17:32:42;19.58;;;9.18;;
40757;SDS011;26462;47.384;19.218;2024-02-21T17:35:10;25.17;;;9.70;;
40757;SDS011;26462;47.384;19.218;2024-02-21T17:37:40;25.33;;;11.90;;
40757;SDS011;26462;47.384;19.218;2024-02-21T17:40:10;29.77;;;13.98;;
40757;SDS011;26462;47.384;19.218;2024-02-21T17:42:39;27.08;;;13.48;;
40757;SDS011;26462;47.384;19.218;2024-02-21T17:45:08;27.20;;;13.65;;
40757;SDS011;26462;47.384;19.218;2024-02-21T17:47:37;22.42;;;11.32;;
40757;SDS011;26462;47.384;19.218;2024-02-21T17:50:06;19.35;;;9.20;;
40757;SDS011;26462;47.384;19.218;2024-02-21T17:52:34;20.25;;;8.25;;
40757;SDS011;26462;47.384;19.218;2024-02-21T17:55:03;16.35;;;7.78;;
40757;SDS011;26462;47.384;19.218;2024-02-21T17:57:33;11.10;;;5.25;;
40757;SDS011;26462;47.384;19.218;2024-02-21T18:00:02;14.35;;;5.32;;
40757;SDS011;26462;47.384;19.218;2024-02-21T18:02:38;14.05;;;5.95;;
40757;SDS011;26462;47.384;19.218;2024-02-21T18:05:07;16.52;;;6.80;;
40757;SDS011;26462;47.384;19.218;2024-02-21T18:07:35;26.65;;;10.40;;
40757;SDS011;26462;47.384;19.218;2024-02-21T18:10:04;24.70;;;11.95;;
40757;SDS011;26462;47.384;19.218;2024-02-21T18:12:34;29.50;;;11.13;;
40757;SDS011;26462;47.384;19.218;2024-02-21T18:15:04;37.92;;;15.88;;
40757;SDS011;26462;47.384;19.218;2024-02-21T18:17:34;49.60;;;21.92;;
40757;SDS011;26462;47.384;19.218;2024-02-21T18:20:03;54.60;;;21.05;;
40757;SDS011;26462;47.384;19.218;2024-02-21T18:22:32;57.53;;;25.50;;
40757;SDS011;26462;47.384;19.218;2024-02-21T18:25:01;63.97;;;26.63;;
40757;SDS011;26462;47.384;19.218;2024-02-21T18:27:30;61.33;;;26.15;;
40757;SDS011;26462;47.384;19.218;2024-02-21T18:30:00;69.45;;;25.88;;
40757;SDS011;26462;47.384;19.218;2024-02-21T18:32:30;60.67;;;25.52;;
40757;SDS011;26462;47.384;19.218;2024-02-21T18:34:59;53.38;;;23.42;;
40757;SDS011;26462;47.384;19.218;2024-02-21T18:37:28;37.85;;;17.30;;
40757;SDS011;26462;47.384;19.218;2024-02-21T18:39:56;35.05;;;16.38;;
40757;SDS011;26462;47.384;19.218;2024-02-21T18:42:25;38.42;;;16.38;;
40757;SDS011;26462;47.384;19.218;2024-02-21T18:44:54;34.30;;;16.65;;
40757;SDS011;26462;47.384;19.218;2024-02-21T18:47:24;33.20;;;15.23;;
40757;SDS011;26462;47.384;19.218;2024-02-21T18:49:53;30.15;;;13.10;;
40757;SDS011;26462;47.384;19.218;2024-02-21T18:52:22;30.63;;;11.15;;
40757;SDS011;26462;47.384;19.218;2024-02-21T18:54:51;25.23;;;10.32;;
40757;SDS011;26462;47.384;19.218;2024-02-21T18:57:20;18.33;;;8.60;;
40757;SDS011;26462;47.384;19.218;2024-02-21T18:59:49;18.98;;;7.53;;
40757;SDS011;26462;47.384;19.218;2024-02-21T19:02:17;17.00;;;7.72;;
40757;SDS011;26462;47.384;19.218;2024-02-21T19:04:47;15.85;;;6.45;;
40757;SDS011;26462;47.384;19.218;2024-02-21T19:07:17;23.77;;;6.55;;
40757;SDS011;26462;47.384;19.218;2024-02-21T19:09:46;14.00;;;5.53;;
40757;SDS011;26462;47.384;19.218;2024-02-21T19:12:15;12.05;;;5.35;;
40757;SDS011;26462;47.384;19.218;2024-02-21T19:14:45;13.85;;;4.85;;
40757;SDS011;26462;47.384;19.218;2024-02-21T19:17:16;15.05;;;5.20;;
40757;SDS011;26462;47.384;19.218;2024-02-21T19:19:44;13.90;;;5.28;;
40757;SDS011;26462;47.384;19.218;2024-02-21T19:22:15;15.35;;;5.57;;
40757;SDS011;26462;47.384;19.218;2024-02-21T19:24:43;14.27;;;5.25;;
40757;SDS011;26462;47.384;19.218;2024-02-21T19:27:12;15.85;;;5.60;;
40757;SDS011;26462;47.384;19.218;2024-02-21T19:29:41;15.77;;;5.35;;
40757;SDS011;26462;47.384;19.218;2024-02-21T19:32:09;14.07;;;6.22;;
40757;SDS011;26462;47.384;19.218;2024-02-21T19:34:39;15.70;;;6.07;;
40757;SDS011;26462;47.384;19.218;2024-02-21T19:37:08;13.20;;;5.88;;
40757;SDS011;26462;47.384;19.218;2024-02-21T19:39:40;14.38;;;6.10;;
40757;SDS011;26462;47.384;19.218;2024-02-21T19:42:09;14.27;;;5.22;;
40757;SDS011;26462;47.384;19.218;2024-02-21T19:44:37;14.65;;;5.35;;
40757;SDS011;26462;47.384;19.218;2024-02-21T19:47:06;13.82;;;4.68;;
40757;SDS011;26462;47.384;19.218;2024-02-21T19:49:36;9.30;;;4.28;;
40757;SDS011;26462;47.384;19.218;2024-02-21T19:52:05;13.20;;;4.43;;
40757;SDS011;26462;47.384;19.218;2024-02-21T19:54:33;10.32;;;4.30;;
40757;SDS011;26462;47.384;19.218;2024-02-21T19:57:04;8.20;;;4.50;;
40757;SDS011;26462;47.384;19.218;2024-02-21T19:59:32;11.48;;;3.83;;
40757;SDS011;26462;47.384;19.218;2024-02-21T20:02:02;9.43;;;3.33;;
40757;SDS011;26462;47.384;19.218;2024-02-21T20:04:33;8.68;;;3.72;;
40757;SDS011;26462;47.384;19.218;2024-02-21T20:07:02;11.13;;;3.75;;
40757;SDS011;26462;47.384;19.218;2024-02-21T20:09:31;15.38;;;6.70;;
40757;SDS011;26462;47.384;19.218;2024-02-21T20:12:06;10.45;;;4.05;;
40757;SDS011;26462;47.384;19.218;2024-02-21T20:14:37;17.00;;;4.13;;
40757;SDS011;26462;47.384;19.218;2024-02-21T20:17:06;8.95;;;3.05;;
40757;SDS011;26462;47.384;19.218;2024-02-21T20:19:35;8.77;;;2.95;;
40757;SDS011;26462;47.384;19.218;2024-02-21T20:22:05;6.72;;;2.75;;
40757;SDS011;26462;47.384;19.218;2024-02-21T20:24:35;8.80;;;2.47;;
40757;SDS011;26462;47.384;19.218;2024-02-21T20:27:08;7.53;;;1.83;;
40757;SDS011;26462;47.384;19.218;2024-02-21T20:29:38;7.07;;;1.92;;
40757;SDS011;26462;47.384;19.218;2024-02-21T20:32:06;6.03;;;1.65;;
40757;SDS011;26462;47.384;19.218;2024-02-21T20:34:35;3.97;;;1.50;;
40757;SDS011;26462;47.384;19.218;2024-02-21T20:37:04;8.90;;;2.22;;
40757;SDS011;26462;47.384;19.218;2024-02-21T20:42:05;4.22;;;1.58;;
40757;SDS011;26462;47.384;19.218;2024-02-21T20:44:36;6.72;;;1.50;;
40757;SDS011;26462;47.384;19.218;2024-02-21T20:47:05;7.32;;;2.60;;
40757;SDS011;26462;47.384;19.218;2024-02-21T20:49:34;5.90;;;2.08;;
40757;SDS011;26462;47.384;19.218;2024-02-21T20:52:03;8.57;;;2.08;;
40757;SDS011;26462;47.384;19.218;2024-02-21T20:54:36;7.28;;;1.92;;
40757;SDS011;26462;47.384;19.218;2024-02-21T20:57:04;7.60;;;2.35;;
40757;SDS011;26462;47.384;19.218;2024-02-21T20:59:33;7.30;;;1.75;;
40757;SDS011;26462;47.384;19.218;2024-02-21T21:02:01;7.28;;;1.73;;
40757;SDS011;26462;47.384;19.218;2024-02-21T21:04:31;6.43;;;2.55;;
40757;SDS011;26462;47.384;19.218;2024-02-21T21:07:00;6.32;;;2.00;;
40757;SDS011;26462;47.384;19.218;2024-02-21T21:09:29;7.35;;;2.33;;
40757;SDS011;26462;47.384;19.218;2024-02-21T21:12:02;7.65;;;2.30;;
40757;SDS011;26462;47.384;19.218;2024-02-21T21:14:32;11.25;;;2.40;;
40757;SDS011;26462;47.384;19.218;2024-02-21T21:17:02;8.35;;;2.50;;
40757;SDS011;26462;47.384;19.218;2024-02-21T21:19:31;8.55;;;2.83;;
40757;SDS011;26462;47.384;19.218;2024-02-21T21:22:00;7.68;;;2.78;;
40757;SDS011;26462;47.384;19.218;2024-02-21T21:24:29;14.88;;;5.90;;
40757;SDS011;26462;47.384;19.218;2024-02-21T21:26:58;10.98;;;4.57;;
40757;SDS011;26462;47.384;19.218;2024-02-21T21:29:28;16.75;;;4.72;;
40757;SDS011;26462;47.384;19.218;2024-02-21T21:32:03;7.45;;;2.63;;
40757;SDS011;26462;47.384;19.218;2024-02-21T21:34:34;8.57;;;2.38;;
40757;SDS011;26462;47.384;19.218;2024-02-21T21:37:03;7.57;;;2.22;;
40757;SDS011;26462;47.384;19.218;2024-02-21T21:39:32;7.68;;;2.08;;
40757;SDS011;26462;47.384;19.218;2024-02-21T21:42:00;8.07;;;2.72;;
40757;SDS011;26462;47.384;19.218;2024-02-21T21:44:32;8.40;;;2.92;;
40757;SDS011;26462;47.384;19.218;2024-02-21T21:47:01;6.18;;;2.28;;
40757;SDS011;26462;47.384;19.218;2024-02-21T21:49:32;7.07;;;2.25;;
40757;SDS011;26462;47.384;19.218;2024-02-21T21:52:01;5.55;;;2.17;;
40757;SDS011;26462;47.384;19.218;2024-02-21T21:54:30;7.40;;;2.58;;
40757;SDS011;26462;47.384;19.218;2024-02-21T21:56:58;7.63;;;3.00;;
40757;SDS011;26462;47.384;19.218;2024-02-21T21:59:26;6.97;;;2.92;;
40757;SDS011;26462;47.384;19.218;2024-02-21T22:01:55;7.05;;;2.35;;
40757;SDS011;26462;47.384;19.218;2024-02-21T22:04:28;7.47;;;2.10;;
40757;SDS011;26462;47.384;19.218;2024-02-21T22:06:56;9.43;;;2.60;;
40757;SDS011;26462;47.384;19.218;2024-02-21T22:09:25;5.80;;;2.17;;
40757;SDS011;26462;47.384;19.218;2024-02-21T22:11:54;6.70;;;2.55;;
40757;SDS011;26462;47.384;19.218;2024-02-21T22:14:23;7.18;;;2.50;;
40757;SDS011;26462;47.384;19.218;2024-02-21T22:16:51;8.50;;;4.18;;
40757;SDS011;26462;47.384;19.218;2024-02-21T22:19:20;6.70;;;2.58;;
40757;SDS011;26462;47.384;19.218;2024-02-21T22:21:50;6.35;;;2.90;;
40757;SDS011;26462;47.384;19.218;2024-02-21T22:24:19;10.05;;;3.03;;
40757;SDS011;26462;47.384;19.218;2024-02-21T22:26:51;7.93;;;2.63;;
40757;SDS011;26462;47.384;19.218;2024-02-21T22:29:21;6.80;;;2.83;;
40757;SDS011;26462;47.384;19.218;2024-02-21T22:31:50;9.27;;;3.05;;
40757;SDS011;26462;47.384;19.218;2024-02-21T22:34:19;6.85;;;3.20;;
40757;SDS011;26462;47.384;19.218;2024-02-21T22:36:49;7.35;;;3.00;;
40757;SDS011;26462;47.384;19.218;2024-02-21T22:39:20;10.45;;;3.58;;
40757;SDS011;26462;47.384;19.218;2024-02-21T22:41:50;9.48;;;3.40;;
40757;SDS011;26462;47.384;19.218;2024-02-21T22:44:19;11.68;;;5.55;;
40757;SDS011;26462;47.384;19.218;2024-02-21T22:46:47;9.60;;;3.63;;
40757;SDS011;26462;47.384;19.218;2024-02-21T22:49:15;7.53;;;2.92;;
40757;SDS011;26462;47.384;19.218;2024-02-21T22:51:44;10.25;;;3.90;;
40757;SDS011;26462;47.384;19.218;2024-02-21T22:54:13;9.32;;;3.42;;
40757;SDS011;26462;47.384;19.218;2024-02-21T22:56:43;9.15;;;3.13;;
40757;SDS011;26462;47.384;19.218;2024-02-21T22:59:11;10.07;;;3.30;;
40757;SDS011;26462;47.384;19.218;2024-02-21T23:01:41;9.93;;;3.75;;
40757;SDS011;26462;47.384;19.218;2024-02-21T23:04:10;8.65;;;3.72;;
40757;SDS011;26462;47.384;19.218;2024-02-21T23:06:39;10.07;;;3.30;;
40757;SDS011;26462;47.384;19.218;2024-02-21T23:09:07;10.00;;;3.72;;
40757;SDS011;26462;47.384;19.218;2024-02-21T23:11:37;7.10;;;3.55;;
40757;SDS011;26462;47.384;19.218;2024-02-21T23:14:06;9.52;;;3.20;;
40757;SDS011;26462;47.384;19.218;2024-02-21T23:16:35;8.07;;;3.20;;
40757;SDS011;26462;47.384;19.218;2024-02-21T23:19:04;8.60;;;3.13;;
40757;SDS011;26462;47.384;19.218;2024-02-21T23:21:33;8.38;;;3.47;;
40757;SDS011;26462;47.384;19.218;2024-02-21T23:24:01;7.32;;;3.38;;
40757;SDS011;26462;47.384;19.218;2024-02-21T23:26:30;8.07;;;2.70;;
40757;SDS011;26462;47.384;19.218;2024-02-21T23:29:02;8.57;;;3.00;;
40757;SDS011;26462;47.384;19.218;2024-02-21T23:31:31;10.52;;;3.00;;
40757;SDS011;26462;47.384;19.218;2024-02-21T23:34:00;9.63;;;2.88;;
40757;SDS011;26462;47.384;19.218;2024-02-21T23:36:28;5.05;;;2.33;;
40757;SDS011;26462;47.384;19.218;2024-02-21T23:38:56;10.63;;;4.00;;
40757;SDS011;26462;47.384;19.218;2024-02-21T23:41:25;7.20;;;2.75;;
40757;SDS011;26462;47.384;19.218;2024-02-21T23:43:53;9.23;;;3.05;;
40757;SDS011;26462;47.384;19.218;2024-02-21T23:46:27;6.82;;;2.20;;
40757;SDS011;26462;47.384;19.218;2024-02-21T23:48:57;7.68;;;2.63;;
40757;SDS011;26462;47.384;19.218;2024-02-21T23:51:28;8.05;;;2.78;;
40757;SDS011;26462;47.384;19.218;2024-02-21T23:53:59;7.45;;;2.92;;
40757;SDS011;26462;47.384;19.218;2024-02-21T23:56:28;8.77;;;3.03;;
40757;SDS011;26462;47.384;19.218;2024-02-21T23:58:56;6.57;;;2.63;;
